Time;durP1;ratioP1;P1;durP2;ratioP2;P2;SDS_P1;SDS_P2;PMS_P1;PMS_P2;Temp;Humidity;BMP_temperature;BMP_pressure;BME280_temperature;BME280_humidity;BME280_pressure;Samples;Min_cycle;Max_cycle;Signal;HPM_P1;HPM_P2
2022/07/19 00:00:34;;;;;;;2.50;0.88;;;;;;;28.91;34.01;101095.97;7381612;19;20018;-65
2022/07/19 00:03:01;;;;;;;3.85;0.80;;;;;;;28.90;34.58;101097.03;7387609;19;20018;-65
2022/07/19 00:05:28;;;;;;;2.60;0.70;;;;;;;28.90;34.20;101098.97;7387325;19;20002;-66
2022/07/19 00:07:55;;;;;;;2.65;0.82;;;;;;;28.87;34.12;101092.16;7388174;19;20017;-65
2022/07/19 00:10:22;;;;;;;3.17;0.80;;;;;;;28.87;35.49;101099.47;7386733;19;20511;-65
2022/07/19 00:12:49;;;;;;;3.10;1.30;;;;;;;28.85;34.82;101096.25;7387354;19;20011;-65
2022/07/19 00:15:16;;;;;;;4.22;1.70;;;;;;;28.82;34.98;101094.88;7386743;19;20082;-64
2022/07/19 00:17:46;;;;;;;5.18;1.38;;;;;;;28.81;34.87;101097.84;7387375;19;20460;-65
2022/07/19 00:20:16;;;;;;;4.00;1.80;;;;;;;28.77;35.72;101094.03;7385512;19;20022;-66
2022/07/19 00:22:43;;;;;;;2.35;1.55;;;;;;;28.74;36.31;101089.97;7385943;19;20356;-66
2022/07/19 00:25:10;;;;;;;3.58;1.67;;;;;;;28.71;35.76;101085.03;7386622;19;20357;-62
2022/07/19 00:27:37;;;;;;;6.13;1.42;;;;;;;28.69;35.91;101081.81;7384557;19;20011;-67
2022/07/19 00:30:06;;;;;;;5.28;1.83;;;;;;;28.67;35.75;101081.25;7385931;19;20114;-63
2022/07/19 00:32:33;;;;;;;3.65;1.30;;;;;;;28.64;35.34;101072.84;7385932;19;20360;-62
2022/07/19 00:35:00;;;;;;;4.70;1.50;;;;;;;28.62;36.65;101067.69;7386850;19;20018;-65
2022/07/19 00:37:27;;;;;;;3.92;1.55;;;;;;;28.60;36.32;101061.69;7384787;19;20025;-62
2022/07/19 00:39:54;;;;;;;7.18;1.48;;;;;;;28.58;35.74;101068.47;7385455;19;20011;-62
2022/07/19 00:42:21;;;;;;;6.97;1.80;;;;;;;28.56;36.19;101073.34;7384547;19;20030;-66
2022/07/19 00:44:48;;;;;;;4.70;1.67;;;;;;;28.53;36.07;101063.06;7385263;19;20009;-65
2022/07/19 00:47:15;;;;;;;6.28;2.25;;;;;;;28.51;36.51;101057.88;7386425;19;20589;-65
2022/07/19 00:49:42;;;;;;;6.47;1.50;;;;;;;28.48;36.28;101051.13;7385645;19;20030;-65
2022/07/19 00:52:09;;;;;;;5.55;1.88;;;;;;;28.46;36.44;101060.59;7384471;19;20367;-65
2022/07/19 00:54:39;;;;;;;7.00;2.05;;;;;;;28.43;36.10;101044.88;7386775;19;20022;-65
2022/07/19 00:57:06;;;;;;;6.78;1.65;;;;;;;28.41;36.52;101044.31;7382677;19;20034;-66
2022/07/19 00:59:34;;;;;;;5.25;1.70;;;;;;;28.37;36.99;101052.16;7382337;19;20017;-64
2022/07/19 01:02:01;;;;;;;8.15;1.52;;;;;;;28.32;36.55;101045.91;7385121;19;20056;-65
2022/07/19 01:04:28;;;;;;;7.22;2.10;;;;;;;28.30;36.20;101046.16;7386172;19;20010;-65
2022/07/19 01:06:55;;;;;;;3.90;1.30;;;;;;;28.28;37.05;101048.34;7384367;19;20094;-64
2022/07/19 01:09:22;;;;;;;8.13;2.00;;;;;;;28.24;37.02;101039.09;7381766;19;20033;-66
2022/07/19 01:11:50;;;;;;;6.57;1.60;;;;;;;28.22;36.93;101041.28;7384274;19;20014;-66
2022/07/19 01:14:17;;;;;;;10.63;2.03;;;;;;;28.19;37.41;101049.91;7384300;19;20036;-65
2022/07/19 01:16:45;;;;;;;5.45;1.63;;;;;;;28.16;37.45;101039.63;7386701;19;20367;-63
2022/07/19 01:19:13;;;;;;;6.15;1.58;;;;;;;28.13;37.71;101037.44;7383437;19;20023;-61
2022/07/19 01:21:40;;;;;;;9.05;1.80;;;;;;;28.11;37.51;101044.16;7382243;19;20021;-63
2022/07/19 01:24:07;;;;;;;3.85;2.15;;;;;;;28.07;38.20;101030.34;7384529;19;20561;-61
2022/07/19 01:26:35;;;;;;;4.00;1.80;;;;;;;28.05;38.13;101027.06;7381803;19;20018;-62
2022/07/19 01:29:03;;;;;;;5.30;1.40;;;;;;;28.03;38.25;101026.53;7382527;19;20010;-61
2022/07/19 01:31:30;;;;;;;5.68;1.70;;;;;;;27.99;37.77;101022.72;7381297;19;20042;-62
2022/07/19 01:33:58;;;;;;;6.93;1.50;;;;;;;27.95;38.69;101014.31;7384406;19;20014;-66
2022/07/19 01:36:25;;;;;;;5.13;1.27;;;;;;;27.93;38.72;101018.38;7384505;19;20019;-65
2022/07/19 01:38:51;;;;;;;4.10;1.42;;;;;;;27.90;38.75;101024.28;7380143;19;20026;-66
2022/07/19 01:41:18;;;;;;;5.90;1.33;;;;;;;27.87;38.51;101014.81;7385357;19;20025;-67
2022/07/19 01:43:45;;;;;;;4.07;1.40;;;;;;;27.83;38.36;101013.72;7383235;19;20018;-66
2022/07/19 01:46:12;;;;;;;6.05;1.60;;;;;;;27.80;38.95;101013.41;7382312;19;20041;-66
2022/07/19 01:48:39;;;;;;;5.97;1.13;;;;;;;27.77;39.16;101012.06;7380603;19;20018;-66
2022/07/19 01:51:06;;;;;;;8.05;1.17;;;;;;;27.74;39.75;101009.06;7383062;19;20017;-66
2022/07/19 01:53:33;;;;;;;2.92;1.20;;;;;;;27.70;40.22;101014.19;7382021;19;20015;-67
2022/07/19 01:56:03;;;;;;;4.20;1.38;;;;;;;27.70;39.80;101013.38;7383858;19;20015;-66
2022/07/19 01:58:30;;;;;;;5.15;1.20;;;;;;;27.67;39.41;101009.31;7384337;19;20006;-66
2022/07/19 02:00:57;;;;;;;6.50;1.42;;;;;;;27.67;39.70;101012.00;7378558;19;20522;-66
2022/07/19 02:03:24;;;;;;;3.30;1.20;;;;;;;27.67;40.03;101001.19;7384126;19;20015;-62
2022/07/19 02:05:51;;;;;;;5.15;1.50;;;;;;;27.65;39.96;100998.72;7383754;19;20023;-62
2022/07/19 02:08:18;;;;;;;4.20;1.20;;;;;;;27.64;40.31;101002.50;7387183;19;20606;-61
2022/07/19 02:10:45;;;;;;;7.03;1.52;;;;;;;27.64;40.77;101001.69;7390958;19;20019;-62
2022/07/19 02:13:12;;;;;;;1.90;1.00;;;;;;;27.64;40.08;100983.56;7391766;19;20043;-62
2022/07/19 02:15:39;;;;;;;3.65;1.15;;;;;;;27.64;40.62;100991.69;7391148;19;20492;-63
2022/07/19 02:18:06;;;;;;;6.60;1.65;;;;;;;27.60;40.28;100981.66;7392745;19;20014;-62
2022/07/19 02:20:33;;;;;;;2.42;1.10;;;;;;;27.59;40.64;100988.97;7389118;19;20029;-62
2022/07/19 02:23:00;;;;;;;3.85;1.10;;;;;;;27.57;40.54;100980.31;7391312;19;20021;-62
2022/07/19 02:25:27;;;;;;;2.92;1.10;;;;;;;27.56;40.59;100984.09;7389855;19;20018;-63
2022/07/19 02:27:54;;;;;;;4.25;1.17;;;;;;;27.56;40.87;100984.09;7391331;19;20015;-62
2022/07/19 02:30:21;;;;;;;3.97;1.20;;;;;;;27.55;41.01;100990.56;7390026;19;20316;-61
2022/07/19 02:32:48;;;;;;;4.05;1.10;;;;;;;27.56;40.40;100989.50;7391177;19;20372;-61
2022/07/19 02:35:16;;;;;;;6.15;0.82;;;;;;;27.55;40.70;100978.94;7390116;19;20021;-63
2022/07/19 02:37:43;;;;;;;4.22;1.02;;;;;;;27.55;40.62;100976.22;7388505;19;20029;-62
2022/07/19 02:40:10;;;;;;;3.78;0.80;;;;;;;27.53;40.58;100978.41;7387935;19;20561;-63
2022/07/19 02:42:38;;;;;;;2.70;1.05;;;;;;;27.50;41.05;100974.31;7388049;19;20024;-65
2022/07/19 02:45:05;;;;;;;3.50;0.98;;;;;;;27.49;41.88;100969.13;7390090;19;20045;-64
2022/07/19 02:47:32;;;;;;;3.72;1.10;;;;;;;27.47;41.54;100960.47;7389320;19;20014;-65
2022/07/19 02:49:59;;;;;;;5.75;1.20;;;;;;;27.46;41.31;100956.13;7388848;19;20021;-65
2022/07/19 02:52:28;;;;;;;4.32;0.95;;;;;;;27.44;41.14;100961.78;7389476;19;20026;-64
2022/07/19 02:54:55;;;;;;;3.80;0.90;;;;;;;27.42;41.79;100960.44;7388145;19;20017;-65
2022/07/19 02:57:22;;;;;;;6.57;0.93;;;;;;;27.41;41.61;100961.50;7387518;19;20474;-66
2022/07/19 02:59:49;;;;;;;6.00;1.25;;;;;;;27.39;41.48;100956.34;7385826;19;20011;-67
2022/07/19 03:02:16;;;;;;;2.10;0.90;;;;;;;27.38;41.23;100957.41;7388896;19;20018;-65
2022/07/19 03:04:42;;;;;;;4.25;0.90;;;;;;;27.38;42.71;100949.31;7389839;19;20086;-63
2022/07/19 03:07:09;;;;;;;2.50;1.08;;;;;;;27.37;41.85;100947.72;7386756;19;20014;-64
2022/07/19 03:09:36;;;;;;;2.67;1.00;;;;;;;27.35;41.14;100947.13;7388229;19;20030;-64
2022/07/19 03:12:04;;;;;;;4.38;1.17;;;;;;;27.33;41.53;100943.88;7386996;19;20018;-61
2022/07/19 03:14:30;;;;;;;3.35;0.85;;;;;;;27.29;41.95;100947.34;7388044;19;20367;-63
2022/07/19 03:16:57;;;;;;;1.90;1.00;;;;;;;27.24;42.09;100942.75;7388098;19;20542;-61
2022/07/19 03:19:27;;;;;;;4.13;1.05;;;;;;;27.20;42.44;100944.34;7384392;19;20082;-64
2022/07/19 03:21:54;;;;;;;6.20;1.00;;;;;;;27.17;42.32;100932.16;7387269;19;20011;-65
2022/07/19 03:24:21;;;;;;;2.25;0.98;;;;;;;27.15;42.54;100931.59;7389846;19;20262;-63
2022/07/19 03:26:48;;;;;;;3.40;1.10;;;;;;;27.14;42.73;100929.97;7387454;19;20522;-62
2022/07/19 03:29:16;;;;;;;3.20;0.90;;;;;;;27.15;42.32;100922.69;7386228;19;20019;-62
2022/07/19 03:31:42;;;;;;;4.45;0.80;;;;;;;27.12;42.78;100929.41;7389200;19;20022;-62
2022/07/19 03:34:10;;;;;;;5.55;1.00;;;;;;;27.10;42.18;100917.25;7386956;19;20028;-61
2022/07/19 03:36:37;;;;;;;3.05;0.90;;;;;;;27.07;42.18;100921.25;7387407;19;20042;-62
2022/07/19 03:39:04;;;;;;;4.43;0.82;;;;;;;27.06;42.89;100921.53;7382070;19;20037;-61
2022/07/19 03:41:31;;;;;;;5.38;1.00;;;;;;;27.02;42.52;100920.44;7384921;19;20390;-63
2022/07/19 03:43:59;;;;;;;2.80;0.93;;;;;;;27.00;43.14;100919.88;7385356;19;20041;-62
2022/07/19 03:46:28;;;;;;;6.22;1.20;;;;;;;26.95;43.14;100917.94;7386417;19;20007;-61
2022/07/19 03:48:57;;;;;;;3.40;0.88;;;;;;;26.94;43.32;100915.50;7388544;19;20018;-61
2022/07/19 03:51:23;;;;;;;2.78;0.90;;;;;;;26.90;43.48;100919.78;7386406;19;20021;-63
2022/07/19 03:53:50;;;;;;;1.95;0.80;;;;;;;26.86;43.46;100915.97;7387881;19;20023;-62
2022/07/19 03:56:20;;;;;;;2.28;0.90;;;;;;;26.82;43.17;100910.22;7386566;19;20021;-61
2022/07/19 03:58:48;;;;;;;5.63;1.00;;;;;;;26.79;43.14;100914.28;7386920;19;20099;-62
2022/07/19 04:01:16;;;;;;;3.60;0.90;;;;;;;26.75;43.91;100907.78;7385446;19;20011;-62
2022/07/19 04:03:49;;;;;;;3.97;1.10;;;;;;;26.75;43.57;100913.19;7385549;19;20014;-61
2022/07/19 04:06:16;;;;;;;5.43;1.02;;;;;;;26.74;43.84;100903.44;7385318;19;20018;-62
2022/07/19 04:08:42;;;;;;;2.30;1.00;;;;;;;26.72;43.60;100910.16;7387072;19;20416;-62
2022/07/19 04:11:09;;;;;;;4.43;0.98;;;;;;;26.71;43.98;100908.53;7386491;19;20024;-64
2022/07/19 04:13:36;;;;;;;2.15;0.88;;;;;;;26.67;44.00;100908.22;7387780;19;20028;-63
2022/07/19 04:16:04;;;;;;;2.55;0.80;;;;;;;26.67;44.65;100910.94;7385515;19;20162;-62
2022/07/19 04:18:31;;;;;;;3.42;0.88;;;;;;;26.62;44.35;100905.47;7387212;19;20015;-62
2022/07/19 04:20:58;;;;;;;3.45;0.70;;;;;;;26.61;45.41;100897.66;7384210;19;20243;-62
2022/07/19 04:23:25;;;;;;;3.33;0.85;;;;;;;26.61;44.97;100897.66;7387420;19;20471;-62
2022/07/19 04:25:52;;;;;;;2.38;0.90;;;;;;;26.58;44.85;100890.88;7385583;19;20472;-62
2022/07/19 04:28:19;;;;;;;6.28;1.30;;;;;;;26.60;45.20;100896.03;7387946;19;20371;-61
2022/07/19 04:30:46;;;;;;;2.97;1.00;;;;;;;26.56;45.13;100887.63;7384472;19;20022;-64
2022/07/19 04:33:15;;;;;;;3.75;1.10;;;;;;;26.57;45.52;100894.63;7388539;19;20022;-62
2022/07/19 04:35:42;;;;;;;4.10;1.13;;;;;;;26.56;45.86;100893.03;7384982;19;20102;-61
2022/07/19 04:38:09;;;;;;;2.08;0.90;;;;;;;26.56;45.29;100886.81;7384298;19;20368;-66
2022/07/19 04:40:36;;;;;;;2.88;0.93;;;;;;;26.54;45.99;100876.25;7383316;19;20031;-66
2022/07/19 04:43:04;;;;;;;4.38;1.17;;;;;;;26.54;45.23;100883.53;7385204;19;20014;-66
2022/07/19 04:45:31;;;;;;;3.60;0.98;;;;;;;26.57;45.23;100885.72;7384553;19;20137;-65
2022/07/19 04:47:58;;;;;;;2.20;0.80;;;;;;;26.56;45.40;100876.00;7385893;19;20411;-66
2022/07/19 04:50:25;;;;;;;2.70;0.90;;;;;;;26.57;45.08;100883.03;7385063;19;20365;-65
2022/07/19 04:52:52;;;;;;;5.40;1.00;;;;;;;26.57;45.33;100883.03;7384149;19;20598;-65
2022/07/19 04:55:19;;;;;;;2.13;0.80;;;;;;;26.56;45.89;100873.31;7384486;19;20283;-65
2022/07/19 04:57:46;;;;;;;3.42;0.80;;;;;;;26.56;45.78;100878.72;7382351;19;20017;-65
2022/07/19 05:00:13;;;;;;;1.73;1.13;;;;;;;26.57;46.22;100867.63;7383979;19;20037;-66
2022/07/19 05:02:40;;;;;;;3.33;1.10;;;;;;;26.58;45.99;100868.44;7383814;19;20328;-66
2022/07/19 05:05:07;;;;;;;5.93;1.45;;;;;;;26.61;45.42;100862.56;7385370;19;20010;-63
2022/07/19 05:07:34;;;;;;;6.90;0.98;;;;;;;26.63;46.40;100858.50;7384324;19;20029;-62
2022/07/19 05:10:01;;;;;;;5.57;1.13;;;;;;;26.63;46.21;100860.41;7383630;19;20297;-62
2022/07/19 05:12:28;;;;;;;4.65;1.15;;;;;;;26.62;46.15;100864.16;7383641;19;20082;-65
2022/07/19 05:14:54;;;;;;;3.47;1.10;;;;;;;26.59;46.21;100857.41;7385187;19;20016;-62
2022/07/19 05:17:21;;;;;;;5.45;1.00;;;;;;;26.61;46.08;100849.88;7383616;19;20550;-65
2022/07/19 05:19:48;;;;;;;6.65;1.10;;;;;;;26.59;46.66;100860.09;7382794;19;20078;-65
2022/07/19 05:22:15;;;;;;;6.78;1.52;;;;;;;26.61;46.67;100857.97;7383552;19;20660;-65
2022/07/19 05:24:42;;;;;;;3.30;0.95;;;;;;;26.63;46.17;100847.72;7384416;19;20020;-65
2022/07/19 05:27:09;;;;;;;5.35;0.98;;;;;;;26.65;46.56;100855.56;7381890;19;20014;-64
2022/07/19 05:29:36;;;;;;;2.47;0.85;;;;;;;26.64;46.35;100851.22;7378774;19;20009;-66
2022/07/19 05:32:03;;;;;;;3.67;0.70;;;;;;;26.63;47.62;100845.00;7381925;19;20010;-62
2022/07/19 05:34:30;;;;;;;6.50;0.85;;;;;;;26.62;47.72;100846.06;7383844;19;20018;-62
2022/07/19 05:36:57;;;;;;;6.22;1.10;;;;;;;26.61;47.41;100846.34;7383184;19;20011;-61
2022/07/19 05:39:23;;;;;;;4.38;0.93;;;;;;;26.62;48.43;100858.75;7381940;19;20018;-62
2022/07/19 05:41:50;;;;;;;3.28;0.90;;;;;;;26.63;47.80;100849.59;7380043;19;20018;-61
2022/07/19 05:44:17;;;;;;;3.72;1.10;;;;;;;26.62;47.93;100848.78;7380969;19;20178;-62
2022/07/19 05:46:45;;;;;;;3.15;0.93;;;;;;;26.62;48.04;100854.19;7384349;19;20010;-63
2022/07/19 05:49:12;;;;;;;7.43;1.38;;;;;;;26.62;48.08;100850.66;7385050;19;20022;-62
2022/07/19 05:51:39;;;;;;;5.35;1.10;;;;;;;26.63;48.15;100852.28;7383201;19;20030;-61
2022/07/19 05:54:06;;;;;;;8.43;1.27;;;;;;;26.63;48.34;100855.81;7384346;19;20554;-62
2022/07/19 05:56:41;;;;;;;4.57;1.42;;;;;;;26.65;48.55;100853.69;7382647;19;20014;-62
2022/07/19 05:59:08;;;;;;;5.82;1.00;;;;;;;26.67;47.92;100848.00;7381321;19;20091;-65
2022/07/19 06:01:35;;;;;;;4.80;1.13;;;;;;;26.69;48.04;100849.38;7381759;19;20538;-65
2022/07/19 06:04:03;;;;;;;4.95;1.20;;;;;;;26.72;47.89;100842.63;7383151;19;20018;-64
2022/07/19 06:06:38;;;;;;;6.00;1.35;;;;;;;26.78;47.91;100841.59;7381270;19;20011;-66
2022/07/19 06:09:07;;;;;;;6.78;1.65;;;;;;;26.79;48.79;100835.94;7382836;19;20483;-66
2022/07/19 06:11:35;;;;;;;5.95;1.10;;;;;;;26.79;48.40;100841.34;7382518;19;20382;-66
2022/07/19 06:14:02;;;;;;;6.75;1.40;;;;;;;26.79;48.22;100835.94;7382558;19;20020;-66
2022/07/19 06:16:29;;;;;;;9.45;1.30;;;;;;;26.83;49.03;100845.16;7382594;19;20015;-66
2022/07/19 06:18:56;;;;;;;10.10;1.75;;;;;;;26.88;48.15;100840.88;7384444;19;20010;-66
2022/07/19 06:21:23;;;;;;;17.67;2.17;;;;;;;26.93;48.44;100847.13;7380057;19;20010;-62
2022/07/19 06:23:51;;;;;;;13.57;1.98;;;;;;;26.99;47.93;100846.09;7383976;19;20078;-62
2022/07/19 06:26:18;;;;;;;5.65;1.17;;;;;;;27.08;47.06;100841.00;7382162;19;20017;-62
2022/07/19 06:28:45;;;;;;;14.45;1.40;;;;;;;27.16;46.81;100844.06;7381915;19;20018;-62
2022/07/19 06:31:13;;;;;;;8.32;1.88;;;;;;;27.21;47.16;100848.66;7382382;19;20484;-62
2022/07/19 06:33:42;;;;;;;4.57;1.45;;;;;;;27.24;47.00;100842.72;7382816;19;20113;-62
2022/07/19 06:36:09;;;;;;;7.80;1.42;;;;;;;27.29;47.19;100847.34;7381404;19;20403;-63
2022/07/19 06:38:36;;;;;;;5.32;1.20;;;;;;;27.32;46.84;100844.94;7380975;19;20011;-62
2022/07/19 06:41:03;;;;;;;6.43;1.17;;;;;;;27.36;47.55;100845.22;7380486;19;20014;-64
2022/07/19 06:43:30;;;;;;;6.22;1.20;;;;;;;27.38;47.98;100848.50;7382504;19;20082;-65
2022/07/19 06:45:57;;;;;;;8.27;1.33;;;;;;;27.40;47.69;100849.03;7380409;19;20510;-65
2022/07/19 06:48:25;;;;;;;2.45;0.70;;;;;;;27.41;46.42;100842.53;7382654;19;20014;-65
2022/07/19 06:50:52;;;;;;;5.68;1.10;;;;;;;27.44;45.09;100844.72;7380692;19;20026;-66
2022/07/19 06:53:19;;;;;;;3.47;1.10;;;;;;;27.50;46.17;100841.81;7381510;19;20014;-64
2022/07/19 06:55:46;;;;;;;5.60;1.02;;;;;;;27.52;45.40;100839.66;7385012;19;20014;-66
2022/07/19 06:58:13;;;;;;;3.25;0.70;;;;;;;27.59;44.25;100842.09;7388762;19;20026;-65
2022/07/19 07:00:39;;;;;;;2.15;0.80;;;;;;;27.65;42.46;100828.34;7389073;19;20106;-64
2022/07/19 07:03:06;;;;;;;5.00;0.95;;;;;;;27.71;42.47;100825.66;7388975;19;20014;-64
2022/07/19 07:05:34;;;;;;;8.55;0.98;;;;;;;27.78;43.43;100824.31;7387871;19;20115;-65
2022/07/19 07:08:01;;;;;;;7.93;1.10;;;;;;;27.84;43.49;100817.00;7386530;19;20348;-68
2022/07/19 07:10:28;;;;;;;4.85;0.80;;;;;;;27.90;43.37;100811.34;7389397;19;20022;-65
2022/07/19 07:12:55;;;;;;;5.32;1.38;;;;;;;27.93;42.98;100810.84;7385838;19;20044;-65
2022/07/19 07:15:22;;;;;;;5.85;1.20;;;;;;;28.00;43.03;100799.72;7386996;19;20021;-65
2022/07/19 07:17:48;;;;;;;3.25;0.80;;;;;;;28.10;42.02;100807.84;7389257;19;20218;-65
2022/07/19 07:20:15;;;;;;;5.43;1.33;;;;;;;28.17;41.51;100799.50;7387034;19;20024;-66
2022/07/19 07:22:43;;;;;;;4.82;0.90;;;;;;;28.25;41.05;100802.47;7387489;19;20029;-66
2022/07/19 07:25:10;;;;;;;4.25;1.00;;;;;;;28.34;40.86;100797.34;7386175;19;20042;-66
2022/07/19 07:27:37;;;;;;;4.25;0.60;;;;;;;28.40;40.63;100799.78;7387692;19;20021;-66
2022/07/19 07:30:05;;;;;;;5.88;1.90;;;;;;;28.47;40.71;100799.50;7388018;19;20379;-68
2022/07/19 07:32:32;;;;;;;7.03;1.02;;;;;;;28.54;40.11;100797.34;7386222;19;20026;-65
2022/07/19 07:34:59;;;;;;;5.20;1.25;;;;;;;28.63;40.04;100798.41;7388094;19;20403;-64
2022/07/19 07:37:26;;;;;;;3.38;0.82;;;;;;;28.72;40.09;100796.78;7386390;19;20188;-64
2022/07/19 07:39:53;;;;;;;5.97;0.88;;;;;;;28.79;39.62;100794.63;7387977;19;20020;-65
2022/07/19 07:42:20;;;;;;;4.72;1.05;;;;;;;28.89;38.81;100791.06;7384282;19;20380;-65
2022/07/19 07:44:47;;;;;;;13.32;1.00;;;;;;;28.97;38.84;100795.91;7385660;19;20441;-66
2022/07/19 07:47:14;;;;;;;4.53;0.80;;;;;;;29.08;39.03;100792.09;7384472;19;20018;-66
2022/07/19 07:49:41;;;;;;;9.35;0.95;;;;;;;29.18;38.53;100783.94;7355319;19;20043;-67
2022/07/19 07:52:09;;;;;;;11.90;0.90;;;;;;;29.27;37.60;100787.69;7382085;19;20027;-65
2022/07/19 07:54:35;;;;;;;4.82;0.90;;;;;;;29.38;37.59;100793.09;7387235;19;20048;-65
2022/07/19 07:57:18;;;;;;;5.43;0.95;;;;;;;29.49;37.29;100791.94;7384343;19;20014;-65
2022/07/19 07:59:45;;;;;;;9.70;1.00;;;;;;;29.59;36.89;100786.47;7385403;19;20024;-64
2022/07/19 08:02:13;;;;;;;3.70;0.73;;;;;;;29.69;36.50;100779.09;7384808;19;20546;-65
2022/07/19 08:04:40;;;;;;;7.10;0.80;;;;;;;29.81;36.32;100777.94;7386434;19;20308;-65
2022/07/19 08:07:07;;;;;;;7.63;1.20;;;;;;;29.88;35.86;100760.22;7384105;19;20114;-65
2022/07/19 08:09:34;;;;;;;6.85;0.80;;;;;;;29.96;34.94;100767.00;7385009;19;20383;-65
2022/07/19 08:12:01;;;;;;;9.00;1.10;;;;;;;30.04;35.84;100761.75;7385648;19;20021;-66
2022/07/19 08:14:28;;;;;;;5.47;0.80;;;;;;;30.10;35.77;100763.34;7385454;19;20431;-66
2022/07/19 08:17:04;;;;;;;8.07;1.10;;;;;;;30.14;35.24;100756.25;7387216;19;20526;-65
2022/07/19 08:19:37;;;;;;;4.30;0.77;;;;;;;30.21;35.04;100761.38;7387013;19;20507;-65
2022/07/19 08:22:04;;;;;;;3.17;0.63;;;;;;;30.31;34.47;100761.28;7382396;19;20471;-65
2022/07/19 08:24:31;;;;;;;3.85;0.80;;;;;;;30.40;33.93;100762.25;7385939;19;20010;-66
2022/07/19 08:26:58;;;;;;;5.78;0.73;;;;;;;30.47;34.11;100754.63;7382221;19;20018;-65
2022/07/19 08:29:25;;;;;;;4.93;0.80;;;;;;;30.53;34.49;100752.66;7381249;19;20011;-64
2022/07/19 08:31:52;;;;;;;4.88;0.80;;;;;;;30.62;34.26;100761.00;7383971;19;20018;-66
2022/07/19 08:34:19;;;;;;;3.67;0.73;;;;;;;30.71;33.60;100757.38;7384783;19;20480;-65
2022/07/19 08:36:46;;;;;;;8.90;0.70;;;;;;;30.79;33.15;100761.34;7380704;19;20014;-64
2022/07/19 08:39:13;;;;;;;2.75;0.70;;;;;;;30.87;33.25;100758.81;7382261;19;20019;-64
2022/07/19 08:41:45;;;;;;;4.63;0.65;;;;;;;30.93;33.24;100754.91;7377615;19;20014;-66
2022/07/19 08:44:13;;;;;;;7.43;0.70;;;;;;;30.98;32.73;100754.06;7382954;19;20015;-64
2022/07/19 08:46:51;;;;;;;6.63;0.90;;;;;;;31.03;33.47;100761.41;7383866;19;20011;-66
2022/07/19 08:49:22;;;;;;;4.53;0.88;;;;;;;31.07;33.26;100756.97;7385685;19;20015;-65
2022/07/19 08:51:49;;;;;;;4.45;0.80;;;;;;;31.13;33.62;100756.66;7377338;19;20097;-65
2022/07/19 08:54:16;;;;;;;9.57;0.77;;;;;;;31.21;33.34;100752.44;7383988;19;20015;-65
2022/07/19 08:59:31;;;;;;;6.00;1.05;;;;;;;31.38;32.04;100748.16;7383711;19;20021;-65
2022/07/19 09:01:57;;;;;;;6.60;1.00;;;;;;;31.46;31.06;100743.94;7382515;19;20017;-65
2022/07/19 09:04:28;;;;;;;4.57;1.00;;;;;;;31.61;30.77;100732.06;7385686;19;20014;-65
2022/07/19 09:06:56;;;;;;;3.80;1.05;;;;;;;31.74;30.06;100739.50;7381253;19;20591;-65
2022/07/19 09:09:31;;;;;;;4.32;0.93;;;;;;;31.89;29.57;100741.97;7382538;19;20458;-66
2022/07/19 09:12:00;;;;;;;6.70;1.13;;;;;;;32.03;30.05;100737.38;7383109;19;20018;-65
2022/07/19 09:14:38;;;;;;;5.32;1.30;;;;;;;32.17;30.21;100740.16;7381472;19;20403;-65
2022/07/19 09:17:16;;;;;;;11.50;1.25;;;;;;;32.28;29.66;100744.34;7382608;19;20059;-65
2022/07/19 09:19:46;;;;;;;6.05;1.00;;;;;;;32.40;29.50;100738.41;7384564;19;20015;-65
2022/07/19 09:22:19;;;;;;;5.40;0.98;;;;;;;32.51;29.25;100745.28;7378743;19;20592;-65
2022/07/19 09:24:49;;;;;;;6.53;1.60;;;;;;;32.66;28.72;100728.69;7381711;19;20195;-65
2022/07/19 09:27:19;;;;;;;3.08;1.00;;;;;;;32.77;29.39;100732.78;7383063;19;20578;-66
2022/07/19 09:29:52;;;;;;;5.10;1.23;;;;;;;32.87;29.16;100727.13;7382474;19;20043;-66
2022/07/19 09:32:20;;;;;;;4.55;0.93;;;;;;;32.94;28.94;100729.47;7380172;19;20011;-65
2022/07/19 09:35:06;;;;;;;3.40;0.90;;;;;;;33.00;28.62;100723.59;7381351;19;20108;-66
2022/07/19 09:37:34;;;;;;;5.82;1.17;;;;;;;33.07;28.42;100726.72;7380180;19;20014;-65
2022/07/19 09:40:09;;;;;;;8.75;1.48;;;;;;;33.14;28.15;100731.75;7380850;19;20404;-66
2022/07/19 09:42:44;;;;;;;9.10;1.13;;;;;;;33.22;28.30;100727.56;7379005;19;20233;-65
2022/07/19 09:45:13;;;;;;;8.75;1.33;;;;;;;33.28;28.61;100723.56;7380657;19;20038;-66
2022/07/19 09:47:48;;;;;;;8.13;1.30;;;;;;;33.33;29.09;100721.53;7381697;19;20018;-66
2022/07/19 09:50:21;;;;;;;7.03;0.90;;;;;;;33.37;29.48;100721.75;7382325;19;20018;-65
2022/07/19 09:52:50;;;;;;;3.90;0.88;;;;;;;33.37;29.06;100719.03;7378013;19;20015;-65
2022/07/19 09:55:18;;;;;;;4.63;1.17;;;;;;;33.44;28.55;100719.38;7379345;19;20303;-64
2022/07/19 09:57:51;;;;;;;3.63;0.95;;;;;;;33.53;28.62;100720.25;7380609;19;20078;-65
2022/07/19 10:00:21;;;;;;;6.43;0.90;;;;;;;33.62;28.92;100717.63;7381424;19;20082;-66
2022/07/19 10:02:53;;;;;;;11.30;1.30;;;;;;;33.66;28.79;100713.97;7379860;19;20350;-64
2022/07/19 10:05:24;;;;;;;5.85;1.00;;;;;;;33.71;28.47;100702.13;7382330;19;20363;-65
2022/07/19 10:07:52;;;;;;;3.00;1.17;;;;;;;33.73;28.39;100711.63;7381659;19;20037;-66
2022/07/19 10:10:36;;;;;;;6.93;1.27;;;;;;;33.78;28.92;100702.53;7379848;19;20014;-65
2022/07/19 10:13:05;;;;;;;2.97;1.08;;;;;;;33.86;28.79;100694.38;7382880;19;20618;-64
2022/07/19 10:15:39;;;;;;;7.05;1.48;;;;;;;33.91;28.61;100694.25;7379621;19;20388;-64
2022/07/19 10:18:12;;;;;;;5.28;1.48;;;;;;;33.95;28.09;100691.69;7381313;19;20015;-65
2022/07/19 10:20:43;;;;;;;4.75;1.00;;;;;;;34.02;28.67;100692.06;7381643;19;20007;-66
2022/07/19 10:23:10;;;;;;;7.03;1.73;;;;;;;34.08;28.73;100684.53;7381632;19;20354;-65
2022/07/19 10:25:42;;;;;;;4.80;0.90;;;;;;;34.09;29.02;100676.00;7381691;19;20014;-65
2022/07/19 10:28:33;;;;;;;5.47;1.00;;;;;;;34.15;28.61;100676.69;7381993;19;20093;-65
2022/07/19 10:31:30;;;;;;;2.72;1.52;;;;;;;34.21;28.33;100673.53;7385605;19;20025;-66
2022/07/19 10:34:05;;;;;;;5.93;1.48;;;;;;;34.27;27.81;100666.00;7389580;19;20014;-66
2022/07/19 10:36:49;;;;;;;5.47;1.33;;;;;;;34.35;27.68;100665.22;7387031;19;20807;-66
2022/07/19 10:39:35;;;;;;;4.60;1.10;;;;;;;34.43;27.54;100663.66;7385112;19;20039;-66
2022/07/19 10:42:21;;;;;;;4.10;1.20;;;;;;;34.51;27.97;100654.66;7385658;19;20019;-65
2022/07/19 10:44:59;;;;;;;7.40;1.17;;;;;;;34.57;27.26;100659.69;7388866;19;20014;-62
2022/07/19 10:47:26;;;;;;;7.38;1.40;;;;;;;34.62;26.87;100651.34;7387866;19;20546;-62
2022/07/19 10:50:01;;;;;;;4.28;1.20;;;;;;;34.70;26.61;100658.78;7390199;19;20420;-62
2022/07/19 10:52:28;;;;;;;4.05;1.60;;;;;;;34.76;25.03;100653.97;7389229;19;20033;-65
2022/07/19 10:55:18;;;;;;;6.10;1.60;;;;;;;34.83;25.88;100653.50;7388441;19;20409;-62
2022/07/19 10:58:05;;;;;;;6.30;1.13;;;;;;;34.82;26.29;100658.16;7387245;19;20015;-62
2022/07/19 11:00:49;;;;;;;6.68;1.27;;;;;;;34.82;25.37;100652.69;7386615;19;20018;-62
2022/07/19 11:03:28;;;;;;;5.75;1.30;;;;;;;34.88;24.59;100640.47;7385644;19;20018;-62
2022/07/19 11:05:58;;;;;;;4.30;1.20;;;;;;;34.95;25.10;100638.06;7387697;19;20014;-63
2022/07/19 11:08:39;;;;;;;5.43;1.33;;;;;;;35.05;25.49;100636.97;7389060;19;20277;-63
2022/07/19 11:11:09;;;;;;;7.70;1.65;;;;;;;35.11;25.25;100630.19;7388247;19;20382;-62
2022/07/19 11:13:38;;;;;;;5.82;1.27;;;;;;;35.16;25.41;100633.56;7389863;19;20022;-62
2022/07/19 11:16:06;;;;;;;4.68;1.30;;;;;;;35.22;25.05;100622.47;7386505;19;20064;-63
2022/07/19 11:18:33;;;;;;;4.47;1.48;;;;;;;35.26;24.42;100623.44;7388719;19;20086;-63
2022/07/19 11:21:02;;;;;;;5.53;1.70;;;;;;;35.31;24.31;100626.00;7388217;19;20206;-62
2022/07/19 11:23:31;;;;;;;6.22;1.50;;;;;;;35.36;24.29;100626.66;7384824;19;20098;-61
2022/07/19 11:26:20;;;;;;;6.45;1.10;;;;;;;35.41;23.76;100615.53;7387773;19;20022;-62
2022/07/19 11:28:48;;;;;;;3.17;1.55;;;;;;;35.42;24.12;100624.56;7386005;19;20478;-63
2022/07/19 11:31:20;;;;;;;6.50;1.70;;;;;;;35.39;24.42;100617.00;7388230;19;20031;-62
2022/07/19 11:33:52;;;;;;;5.60;1.50;;;;;;;35.41;24.00;100614.72;7388821;19;20038;-62